Time;durP1;ratioP1;P1;durP2;ratioP2;P2;SDS_P1;SDS_P2;PMS_P1;PMS_P2;Temp;Humidity;BMP_temperature;BMP_pressure;BME280_temperature;BME280_humidity;BME280_pressure;Samples;Min_cycle;Max_cycle;Signal;HPM_P1;HPM_P2
2022/08/21 00:00:49;;;;;;;12.57;5.57;;;;;;;;;;4989750;28;20432;-61
2022/08/21 00:03:15;;;;;;;10.70;6.07;;;;;;;;;;4988503;28;20390;-61
2022/08/21 00:05:44;;;;;;;11.27;6.10;;;;;;;;;;4988476;28;20032;-61
2022/08/21 00:08:10;;;;;;;9.30;5.45;;;;;;;;;;4988330;28;20471;-61
2022/08/21 00:10:36;;;;;;;11.50;5.50;;;;;;;;;;4988200;28;20414;-62
2022/08/21 00:13:04;;;;;;;9.15;5.85;;;;;;;;;;4990215;28;20037;-63
2022/08/21 00:15:30;;;;;;;13.25;6.15;;;;;;;;;;4988178;28;20095;-61
2022/08/21 00:17:56;;;;;;;10.55;5.43;;;;;;;;;;4988879;28;20451;-62
2022/08/21 00:20:23;;;;;;;7.38;5.45;;;;;;;;;;4988752;28;20373;-62
2022/08/21 00:22:49;;;;;;;8.98;5.78;;;;;;;;;;4988417;28;20048;-61
2022/08/21 00:25:15;;;;;;;14.40;6.03;;;;;;;;;;4988798;28;20378;-62
2022/08/21 00:27:46;;;;;;;8.50;4.90;;;;;;;;;;4988911;28;20033;-61
2022/08/21 00:30:13;;;;;;;8.18;5.30;;;;;;;;;;4987840;28;20100;-61
2022/08/21 00:32:39;;;;;;;8.65;5.00;;;;;;;;;;4989292;28;20359;-61
2022/08/21 00:35:11;;;;;;;12.65;6.38;;;;;;;;;;4987929;28;20352;-63
2022/08/21 00:37:40;;;;;;;10.63;5.65;;;;;;;;;;4989532;28;20060;-62
2022/08/21 00:40:08;;;;;;;8.88;5.15;;;;;;;;;;4970363;28;20021;-62
2022/08/21 00:42:34;;;;;;;9.93;5.97;;;;;;;;;;4987760;28;20409;-61
2022/08/21 00:45:00;;;;;;;8.15;5.68;;;;;;;;;;4987556;28;20633;-61
2022/08/21 00:47:25;;;;;;;9.25;5.93;;;;;;;;;;4987698;28;20426;-62
2022/08/21 00:49:50;;;;;;;8.95;5.38;;;;;;;;;;4989210;28;20375;-61
2022/08/21 00:52:19;;;;;;;10.23;5.65;;;;;;;;;;4987151;28;20084;-61
2022/08/21 00:54:45;;;;;;;12.52;5.70;;;;;;;;;;4969772;28;20033;-61
2022/08/21 00:57:15;;;;;;;11.38;5.97;;;;;;;;;;4987983;28;20313;-61
2022/08/21 00:59:44;;;;;;;9.13;5.40;;;;;;;;;;4987668;28;20447;-61
2022/08/21 01:02:10;;;;;;;8.60;5.15;;;;;;;;;;4964514;28;20367;-61
2022/08/21 01:04:35;;;;;;;9.25;5.18;;;;;;;;;;4971612;28;20364;-61
2022/08/21 01:07:01;;;;;;;13.20;6.30;;;;;;;;;;4968095;28;20387;-61
2022/08/21 01:09:27;;;;;;;8.85;5.75;;;;;;;;;;4967789;28;20456;-62
2022/08/21 01:11:52;;;;;;;10.75;5.70;;;;;;;;;;4968931;28;20444;-62
2022/08/21 01:14:18;;;;;;;13.18;5.57;;;;;;;;;;4967902;28;20353;-61
2022/08/21 01:16:46;;;;;;;9.98;5.30;;;;;;;;;;4967655;28;20060;-61
2022/08/21 01:19:12;;;;;;;8.32;5.72;;;;;;;;;;4969894;28;20419;-61
2022/08/21 01:21:37;;;;;;;13.73;5.40;;;;;;;;;;4967645;28;20387;-61
2022/08/21 01:24:03;;;;;;;9.77;5.95;;;;;;;;;;4967744;28;20503;-61
2022/08/21 01:26:31;;;;;;;10.02;5.97;;;;;;;;;;4967879;28;20448;-62
2022/08/21 01:29:02;;;;;;;9.75;5.88;;;;;;;;;;4967903;28;20490;-61
2022/08/21 01:31:28;;;;;;;8.85;6.22;;;;;;;;;;4949849;28;20053;-64
2022/08/21 01:33:54;;;;;;;11.20;6.18;;;;;;;;;;4967987;28;20364;-61
2022/08/21 01:36:20;;;;;;;10.02;5.68;;;;;;;;;;4969698;28;20420;-61
2022/08/21 01:38:46;;;;;;;12.55;6.13;;;;;;;;;;4967692;28;20525;-62
2022/08/21 01:41:12;;;;;;;13.20;5.93;;;;;;;;;;4967636;28;20354;-61
2022/08/21 01:43:38;;;;;;;9.43;5.90;;;;;;;;;;4967436;28;20198;-61
2022/08/21 01:46:04;;;;;;;14.13;5.78;;;;;;;;;;4967592;28;20461;-61
2022/08/21 01:48:29;;;;;;;8.93;5.72;;;;;;;;;;4967308;28;20436;-61
2022/08/21 01:50:55;;;;;;;11.82;5.93;;;;;;;;;;4967573;28;20033;-61
2022/08/21 01:53:21;;;;;;;10.35;5.10;;;;;;;;;;4967537;28;20337;-61
2022/08/21 01:55:46;;;;;;;12.88;6.32;;;;;;;;;;4967342;28;20029;-62
2022/08/21 01:58:11;;;;;;;9.48;5.22;;;;;;;;;;4969072;28;20029;-61
2022/08/21 02:00:37;;;;;;;10.32;6.18;;;;;;;;;;4968002;28;20424;-61
2022/08/21 02:03:03;;;;;;;12.27;5.70;;;;;;;;;;4967569;28;20096;-61
2022/08/21 02:05:28;;;;;;;9.43;6.13;;;;;;;;;;4969600;28;20395;-61
2022/08/21 02:07:54;;;;;;;8.10;5.13;;;;;;;;;;4972195;28;20443;-61
2022/08/21 02:10:26;;;;;;;12.65;5.95;;;;;;;;;;4971052;28;20483;-61
2022/08/21 02:12:52;;;;;;;9.15;4.97;;;;;;;;;;4972973;28;20474;-61
2022/08/21 02:15:18;;;;;;;9.18;5.82;;;;;;;;;;4971248;28;20452;-61
2022/08/21 02:17:47;;;;;;;8.88;5.70;;;;;;;;;;4970606;28;20460;-61
2022/08/21 02:20:28;;;;;;;8.30;5.90;;;;;;;;;;4971150;28;20440;-61
2022/08/21 02:22:54;;;;;;;11.57;5.82;;;;;;;;;;4970572;28;20060;-61
2022/08/21 02:25:20;;;;;;;9.40;5.47;;;;;;;;;;4971083;28;20495;-62
2022/08/21 02:27:47;;;;;;;12.60;6.90;;;;;;;;;;4970702;28;20455;-61
2022/08/21 02:30:25;;;;;;;10.27;6.15;;;;;;;;;;4971400;28;20461;-62
2022/08/21 02:32:51;;;;;;;9.57;6.35;;;;;;;;;;4971037;28;20444;-62
2022/08/21 02:35:18;;;;;;;14.20;6.88;;;;;;;;;;4970276;28;20436;-61
2022/08/21 02:37:57;;;;;;;9.55;6.07;;;;;;;;;;4970238;28;20343;-61
2022/08/21 02:40:26;;;;;;;11.80;6.93;;;;;;;;;;4970169;28;20444;-62
2022/08/21 02:42:51;;;;;;;11.73;6.63;;;;;;;;;;4970263;28;20359;-62
2022/08/21 02:45:17;;;;;;;9.68;6.10;;;;;;;;;;4970172;28;20406;-61
2022/08/21 02:47:50;;;;;;;13.13;6.65;;;;;;;;;;4970116;28;20368;-62
2022/08/21 02:50:46;;;;;;;11.13;6.82;;;;;;;;;;4971113;28;20456;-61
2022/08/21 02:53:16;;;;;;;16.38;7.85;;;;;;;;;;4968419;28;20412;-61
2022/08/21 02:55:43;;;;;;;13.30;6.93;;;;;;;;;;4969952;28;20472;-61
2022/08/21 02:58:09;;;;;;;10.57;6.60;;;;;;;;;;4970131;28;20344;-61
2022/08/21 03:00:35;;;;;;;15.35;7.38;;;;;;;;;;4969930;28;20048;-61
2022/08/21 03:03:00;;;;;;;11.40;7.28;;;;;;;;;;4969987;28;20505;-61
2022/08/21 03:05:27;;;;;;;15.63;8.02;;;;;;;;;;4969826;28;20436;-61
2022/08/21 03:07:53;;;;;;;10.68;6.78;;;;;;;;;;4969748;28;20432;-61
2022/08/21 03:10:20;;;;;;;15.38;7.45;;;;;;;;;;4969773;28;20341;-61
2022/08/21 03:12:46;;;;;;;13.68;7.20;;;;;;;;;;4969717;28;20455;-61
2022/08/21 03:15:13;;;;;;;13.60;7.18;;;;;;;;;;4969385;28;20424;-61
2022/08/21 03:17:38;;;;;;;10.43;7.18;;;;;;;;;;4969514;28;20519;-61
2022/08/21 03:20:06;;;;;;;11.15;6.32;;;;;;;;;;4969656;28;20407;-61
2022/08/21 03:22:31;;;;;;;11.67;7.23;;;;;;;;;;4969680;28;20356;-61
2022/08/21 03:24:57;;;;;;;13.02;6.22;;;;;;;;;;4971832;28;20026;-61
2022/08/21 03:27:24;;;;;;;15.32;7.90;;;;;;;;;;4969415;28;20359;-61
2022/08/21 03:29:49;;;;;;;12.07;6.32;;;;;;;;;;4969955;28;20383;-62
2022/08/21 03:32:14;;;;;;;10.73;6.50;;;;;;;;;;4969569;28;20065;-61
2022/08/21 03:34:40;;;;;;;12.57;6.97;;;;;;;;;;4970929;28;20438;-63
2022/08/21 03:37:06;;;;;;;11.00;7.03;;;;;;;;;;4969076;28;20465;-61
2022/08/21 03:39:32;;;;;;;21.65;7.65;;;;;;;;;;4951649;28;20389;-61
2022/08/21 03:41:58;;;;;;;13.35;7.40;;;;;;;;;;4969172;28;20395;-61
2022/08/21 03:44:24;;;;;;;10.90;7.43;;;;;;;;;;4969847;28;20550;-61
2022/08/21 03:46:49;;;;;;;16.23;7.63;;;;;;;;;;4969646;28;20460;-61
2022/08/21 03:49:15;;;;;;;15.07;7.80;;;;;;;;;;4969457;28;20440;-61
2022/08/21 03:51:40;;;;;;;13.23;7.43;;;;;;;;;;4969704;28;20364;-61
2022/08/21 03:54:06;;;;;;;15.23;8.32;;;;;;;;;;4951239;28;20440;-62
2022/08/21 03:56:31;;;;;;;16.00;7.30;;;;;;;;;;4968799;28;20360;-61
2022/08/21 03:58:57;;;;;;;12.88;6.65;;;;;;;;;;4968773;28;20428;-61
2022/08/21 04:01:22;;;;;;;14.68;7.70;;;;;;;;;;4968933;28;20371;-61
2022/08/21 04:03:48;;;;;;;13.57;7.63;;;;;;;;;;4969392;28;20310;-61
2022/08/21 04:06:13;;;;;;;11.65;6.68;;;;;;;;;;4968669;28;20043;-61
2022/08/21 04:08:38;;;;;;;11.10;6.88;;;;;;;;;;4968560;28;20120;-61
2022/08/21 04:11:05;;;;;;;11.30;7.10;;;;;;;;;;4968609;28;20460;-61
2022/08/21 04:13:31;;;;;;;18.90;8.00;;;;;;;;;;4968959;28;20512;-61
2022/08/21 04:15:57;;;;;;;11.95;7.57;;;;;;;;;;4968512;28;20343;-61
2022/08/21 04:18:23;;;;;;;12.70;7.90;;;;;;;;;;4950605;28;20348;-61
2022/08/21 04:20:50;;;;;;;13.18;7.25;;;;;;;;;;4969280;28;20336;-62
2022/08/21 04:23:18;;;;;;;15.60;7.63;;;;;;;;;;4969534;28;20371;-61
2022/08/21 04:25:43;;;;;;;11.30;7.25;;;;;;;;;;4968422;28;20375;-61
2022/08/21 04:28:08;;;;;;;15.18;8.18;;;;;;;;;;4967517;28;20345;-61
2022/08/21 04:30:34;;;;;;;11.20;7.53;;;;;;;;;;4968308;28;20456;-62
2022/08/21 04:32:59;;;;;;;14.35;7.22;;;;;;;;;;4969485;28;20408;-61
2022/08/21 04:35:27;;;;;;;10.55;7.53;;;;;;;;;;4969113;28;20517;-62
2022/08/21 04:37:52;;;;;;;10.32;6.47;;;;;;;;;;4968175;28;20352;-61
2022/08/21 04:40:20;;;;;;;12.82;7.10;;;;;;;;;;4968220;28;20322;-61
2022/08/21 04:42:49;;;;;;;15.80;7.07;;;;;;;;;;4969046;28;20472;-61
2022/08/21 04:45:26;;;;;;;18.15;8.07;;;;;;;;;;4968402;28;20425;-61
2022/08/21 04:47:56;;;;;;;15.98;8.00;;;;;;;;;;4968071;28;20518;-61
2022/08/21 04:50:24;;;;;;;17.23;8.02;;;;;;;;;;4968165;28;20437;-61
2022/08/21 04:52:50;;;;;;;11.00;7.15;;;;;;;;;;4968469;28;20029;-61
2022/08/21 04:55:16;;;;;;;12.52;6.50;;;;;;;;;;4951215;28;20455;-61
2022/08/21 04:57:42;;;;;;;14.43;7.97;;;;;;;;;;4950066;28;20146;-61
2022/08/21 05:00:11;;;;;;;11.15;7.47;;;;;;;;;;4951399;28;20025;-61
2022/08/21 05:02:37;;;;;;;10.73;7.07;;;;;;;;;;4967894;28;20095;-61
2022/08/21 05:05:03;;;;;;;10.68;7.13;;;;;;;;;;4970297;28;20398;-61
2022/08/21 05:07:29;;;;;;;12.90;7.25;;;;;;;;;;4969178;28;20400;-61
2022/08/21 05:09:55;;;;;;;12.40;7.88;;;;;;;;;;4950080;28;20430;-61
2022/08/21 05:12:21;;;;;;;14.43;8.00;;;;;;;;;;4968701;28;20052;-61
2022/08/21 05:14:46;;;;;;;12.38;6.82;;;;;;;;;;4950774;28;20103;-61
2022/08/21 05:17:12;;;;;;;13.48;7.22;;;;;;;;;;4968219;28;20472;-62
2022/08/21 05:19:38;;;;;;;11.05;7.22;;;;;;;;;;4968237;28;20468;-62
2022/08/21 05:22:03;;;;;;;10.57;6.72;;;;;;;;;;4969928;28;20168;-61
2022/08/21 05:24:28;;;;;;;9.98;6.43;;;;;;;;;;4967693;28;20392;-61
2022/08/21 05:26:54;;;;;;;10.40;7.63;;;;;;;;;;4967929;28;20371;-61
2022/08/21 05:29:20;;;;;;;10.90;6.88;;;;;;;;;;4968698;28;20429;-61
2022/08/21 05:31:46;;;;;;;10.43;6.97;;;;;;;;;;4967827;28;20456;-61
2022/08/21 05:34:13;;;;;;;15.93;6.65;;;;;;;;;;4968825;28;20441;-61
2022/08/21 05:36:38;;;;;;;11.85;6.57;;;;;;;;;;4968086;28;20112;-63
2022/08/21 05:39:03;;;;;;;12.63;7.28;;;;;;;;;;4971739;28;20447;-61
2022/08/21 05:41:29;;;;;;;11.30;7.28;;;;;;;;;;4971631;28;20447;-61
2022/08/21 05:43:54;;;;;;;12.30;7.22;;;;;;;;;;4971355;28;20429;-62
2022/08/21 05:46:19;;;;;;;14.20;6.75;;;;;;;;;;4971390;28;20337;-61
2022/08/21 05:48:45;;;;;;;13.85;6.82;;;;;;;;;;4971287;28;20352;-61
2022/08/21 05:51:12;;;;;;;13.00;7.82;;;;;;;;;;4971698;28;20535;-61
2022/08/21 05:53:39;;;;;;;10.93;7.23;;;;;;;;;;4971539;28;20037;-68
2022/08/21 05:56:04;;;;;;;11.10;7.65;;;;;;;;;;4971334;28;20480;-61
2022/08/21 05:58:32;;;;;;;14.00;6.95;;;;;;;;;;4971707;28;20417;-61
2022/08/21 06:00:58;;;;;;;12.38;7.05;;;;;;;;;;4971192;28;20361;-61
2022/08/21 06:03:29;;;;;;;8.90;6.38;;;;;;;;;;4972245;28;20425;-61
2022/08/21 06:05:55;;;;;;;12.00;7.30;;;;;;;;;;4972010;28;20577;-62
2022/08/21 06:08:21;;;;;;;11.30;7.60;;;;;;;;;;4971394;28;20360;-61
2022/08/21 06:10:48;;;;;;;10.73;6.72;;;;;;;;;;4971712;28;20475;-61
2022/08/21 06:13:15;;;;;;;15.50;7.65;;;;;;;;;;4971039;28;20437;-61
2022/08/21 06:15:40;;;;;;;16.73;6.43;;;;;;;;;;4971978;28;20436;-61
2022/08/21 06:18:06;;;;;;;19.98;8.00;;;;;;;;;;4971005;28;20433;-63
2022/08/21 06:20:32;;;;;;;10.18;6.50;;;;;;;;;;4971946;28;20026;-61
2022/08/21 06:22:57;;;;;;;12.55;7.25;;;;;;;;;;4970738;28;20029;-61
2022/08/21 06:25:23;;;;;;;11.10;7.05;;;;;;;;;;4970864;28;20426;-61
2022/08/21 06:27:49;;;;;;;10.48;5.97;;;;;;;;;;4970402;28;20025;-62
2022/08/21 06:30:14;;;;;;;12.55;7.82;;;;;;;;;;4969143;28;20030;-61
2022/08/21 06:32:39;;;;;;;10.93;7.15;;;;;;;;;;4971298;28;20324;-62
2022/08/21 06:35:05;;;;;;;10.77;6.97;;;;;;;;;;4970551;28;20408;-61
2022/08/21 06:37:31;;;;;;;9.65;6.25;;;;;;;;;;4970576;28;20440;-61
2022/08/21 06:39:57;;;;;;;12.32;7.15;;;;;;;;;;4971337;28;20328;-61
2022/08/21 06:42:22;;;;;;;11.18;6.63;;;;;;;;;;4970892;28;20432;-61
2022/08/21 06:44:47;;;;;;;8.15;6.13;;;;;;;;;;4979929;28;20190;-61
2022/08/21 06:47:13;;;;;;;11.50;7.65;;;;;;;;;;4990293;28;20355;-61
2022/08/21 06:49:39;;;;;;;17.25;7.13;;;;;;;;;;4989786;28;20515;-61
2022/08/21 06:52:08;;;;;;;12.40;7.18;;;;;;;;;;4990338;28;20394;-62
2022/08/21 06:54:34;;;;;;;8.60;6.00;;;;;;;;;;4991880;28;20048;-61
2022/08/21 06:56:59;;;;;;;9.70;6.18;;;;;;;;;;4990596;28;20441;-61
2022/08/21 06:59:24;;;;;;;12.15;6.90;;;;;;;;;;4989951;28;20323;-61
2022/08/21 07:01:50;;;;;;;11.50;6.57;;;;;;;;;;4990527;28;20428;-62
2022/08/21 07:04:15;;;;;;;10.65;6.82;;;;;;;;;;4990126;28;20097;-61
2022/08/21 07:06:40;;;;;;;13.48;7.38;;;;;;;;;;4989697;28;20328;-61
2022/08/21 07:09:06;;;;;;;10.18;6.88;;;;;;;;;;4991012;28;20370;-61
2022/08/21 07:11:31;;;;;;;12.95;7.40;;;;;;;;;;4989548;28;20321;-61
2022/08/21 07:13:58;;;;;;;12.57;6.85;;;;;;;;;;4989409;28;20340;-61
2022/08/21 07:16:23;;;;;;;11.40;6.25;;;;;;;;;;4990125;28;20375;-61
2022/08/21 07:18:49;;;;;;;7.55;5.65;;;;;;;;;;4989327;28;20020;-62
2022/08/21 07:21:14;;;;;;;8.63;5.68;;;;;;;;;;4989262;28;20470;-61
2022/08/21 07:23:44;;;;;;;9.38;6.15;;;;;;;;;;4989394;28;20455;-61
2022/08/21 07:26:15;;;;;;;14.10;6.47;;;;;;;;;;4989406;28;20356;-61
2022/08/21 07:28:40;;;;;;;9.77;5.85;;;;;;;;;;4989281;28;20440;-62
2022/08/21 07:31:06;;;;;;;8.07;5.63;;;;;;;;;;4991333;28;20295;-61
2022/08/21 07:33:33;;;;;;;11.18;6.20;;;;;;;;;;4989069;28;20377;-61
2022/08/21 07:35:58;;;;;;;9.82;6.63;;;;;;;;;;4987544;28;20393;-61
2022/08/21 07:38:24;;;;;;;7.07;5.00;;;;;;;;;;4989812;28;20373;-61
2022/08/21 07:40:51;;;;;;;10.43;6.68;;;;;;;;;;4989103;28;20340;-61
2022/08/21 07:43:17;;;;;;;9.80;6.30;;;;;;;;;;4987591;28;20387;-61
2022/08/21 07:45:43;;;;;;;8.80;5.72;;;;;;;;;;4974178;28;20096;-62
2022/08/21 07:48:09;;;;;;;14.70;6.28;;;;;;;;;;4969188;28;20500;-61
2022/08/21 07:50:35;;;;;;;10.43;6.50;;;;;;;;;;4969180;28;20417;-61
2022/08/21 07:53:00;;;;;;;8.30;5.72;;;;;;;;;;4969484;28;20483;-61
2022/08/21 07:55:26;;;;;;;9.13;5.85;;;;;;;;;;4969059;28;20400;-61
2022/08/21 07:57:51;;;;;;;12.82;7.93;;;;;;;;;;4969060;28;20459;-61
2022/08/21 08:00:20;;;;;;;9.98;7.00;;;;;;;;;;4968884;28;20033;-61
2022/08/21 08:02:51;;;;;;;10.35;7.35;;;;;;;;;;4967941;28;20440;-61
2022/08/21 08:05:19;;;;;;;9.27;5.60;;;;;;;;;;4968846;28;20459;-61
2022/08/21 08:07:45;;;;;;;9.40;6.65;;;;;;;;;;4971070;28;20263;-61
2022/08/21 08:10:11;;;;;;;8.40;5.55;;;;;;;;;;4968621;28;20494;-61
2022/08/21 08:12:38;;;;;;;8.60;6.00;;;;;;;;;;4968500;28;20463;-62
2022/08/21 08:15:06;;;;;;;14.10;6.85;;;;;;;;;;4969309;28;20395;-61
2022/08/21 08:17:32;;;;;;;12.93;7.28;;;;;;;;;;4968081;28;20437;-61
2022/08/21 08:19:58;;;;;;;8.65;6.00;;;;;;;;;;4968166;28;20479;-61
2022/08/21 08:22:24;;;;;;;8.63;6.68;;;;;;;;;;4968325;28;20433;-61
2022/08/21 08:24:50;;;;;;;7.65;5.97;;;;;;;;;;4969007;28;20444;-61
2022/08/21 08:27:16;;;;;;;12.10;7.20;;;;;;;;;;4950776;28;20402;-61
2022/08/21 08:29:42;;;;;;;12.23;7.55;;;;;;;;;;4969260;28;20317;-62
2022/08/21 08:32:08;;;;;;;11.63;7.15;;;;;;;;;;4968677;28;20351;-61
2022/08/21 08:34:34;;;;;;;11.10;7.13;;;;;;;;;;4968214;28;20025;-61
2022/08/21 08:37:00;;;;;;;8.88;6.82;;;;;;;;;;4969603;28;20401;-61
2022/08/21 08:39:26;;;;;;;13.18;8.27;;;;;;;;;;4967951;28;20102;-61
2022/08/21 08:41:58;;;;;;;12.68;8.40;;;;;;;;;;4967155;28;20367;-61
2022/08/21 08:44:23;;;;;;;11.68;7.63;;;;;;;;;;4968183;28;20180;-61
2022/08/21 08:46:50;;;;;;;12.38;7.45;;;;;;;;;;4968277;28;20458;-61
2022/08/21 08:49:37;;;;;;;13.43;7.22;;;;;;;;;;4950436;28;20480;-61
2022/08/21 08:52:06;;;;;;;13.68;7.22;;;;;;;;;;4950788;28;20340;-61
2022/08/21 08:54:43;;;;;;;13.80;7.45;;;;;;;;;;4968356;28;20503;-62
2022/08/21 08:57:17;;;;;;;12.90;6.80;;;;;;;;;;4968754;28;20313;-61
2022/08/21 08:59:46;;;;;;;13.73;7.20;;;;;;;;;;4968313;28;20021;-62
2022/08/21 09:02:14;;;;;;;10.20;5.80;;;;;;;;;;4968184;28;20465;-61
2022/08/21 09:04:40;;;;;;;9.38;6.15;;;;;;;;;;4968322;28;20456;-61
2022/08/21 09:07:08;;;;;;;11.35;6.47;;;;;;;;;;4970363;28;20429;-62
2022/08/21 09:09:51;;;;;;;9.30;6.10;;;;;;;;;;4968237;28;20033;-61
2022/08/21 09:12:34;;;;;;;8.55;6.15;;;;;;;;;;4970316;28;20478;-61
2022/08/21 09:15:24;;;;;;;10.25;6.15;;;;;;;;;;4971445;28;20510;-63
2022/08/21 09:18:25;;;;;;;7.43;5.57;;;;;;;;;;4972031;28;20399;-62
2022/08/21 09:21:02;;;;;;;9.23;6.22;;;;;;;;;;4873623;29;20047;-61
2022/08/21 09:23:47;;;;;;;9.23;5.63;;;;;;;;;;4941993;28;20487;-62
2022/08/21 09:26:15;;;;;;;7.70;5.78;;;;;;;;;;4956340;28;20571;-61
2022/08/21 09:28:42;;;;;;;10.07;6.05;;;;;;;;;;4954195;28;20510;-61
2022/08/21 09:31:15;;;;;;;8.77;5.53;;;;;;;;;;4971789;28;20475;-61
2022/08/21 09:33:41;;;;;;;8.18;5.28;;;;;;;;;;4954491;28;20029;-61
2022/08/21 09:36:06;;;;;;;11.23;5.72;;;;;;;;;;4973599;28;20455;-61
2022/08/21 09:38:36;;;;;;;8.68;5.95;;;;;;;;;;4954289;28;20452;-61
2022/08/21 09:41:06;;;;;;;7.28;5.25;;;;;;;;;;4971860;28;20440;-62
2022/08/21 09:43:33;;;;;;;8.73;5.40;;;;;;;;;;4971699;28;20348;-62
2022/08/21 09:46:09;;;;;;;8.98;5.40;;;;;;;;;;4971965;28;20360;-61
2022/08/21 09:48:46;;;;;;;6.75;5.28;;;;;;;;;;4971444;28;20353;-61
2022/08/21 09:51:17;;;;;;;8.82;5.05;;;;;;;;;;4971610;28;20133;-62
2022/08/21 09:53:47;;;;;;;5.93;4.60;;;;;;;;;;4971962;28;20471;-61
2022/08/21 09:59:45;;;;;;;7.88;5.65;;;;;;;;;;4972638;28;20356;-61
2022/08/21 10:02:30;;;;;;;9.38;5.63;;;;;;;;;;4970901;28;20484;-62
2022/08/21 10:05:00;;;;;;;6.97;4.55;;;;;;;;;;4972036;28;20332;-61
2022/08/21 10:07:29;;;;;;;7.70;5.20;;;;;;;;;;4971591;28;20506;-61
2022/08/21 10:10:36;;;;;;;8.30;5.15;;;;;;;;;;4971076;28;20474;-61
2022/08/21 10:13:08;;;;;;;5.95;4.55;;;;;;;;;;4872722;29;20403;-61
2022/08/21 10:15:46;;;;;;;7.43;4.55;;;;;;;;;;4871765;29;20133;-62
2022/08/21 10:18:17;;;;;;;7.18;4.45;;;;;;;;;;4932071;28;20355;-61
2022/08/21 10:20:58;;;;;;;9.38;5.43;;;;;;;;;;4971148;28;20420;-61
2022/08/21 10:23:39;;;;;;;9.05;4.32;;;;;;;;;;4970388;28;20502;-61
2022/08/21 10:26:13;;;;;;;6.60;4.68;;;;;;;;;;4969632;28;20501;-62
2022/08/21 10:28:59;;;;;;;6.25;4.25;;;;;;;;;;4952810;28;20337;-61
2022/08/21 10:31:49;;;;;;;6.50;4.40;;;;;;;;;;4970613;28;20550;-62
2022/08/21 10:34:29;;;;;;;9.30;5.15;;;;;;;;;;4971510;28;20077;-61
2022/08/21 10:37:22;;;;;;;8.65;4.47;;;;;;;;;;4970635;28;20391;-61
2022/08/21 10:39:54;;;;;;;6.95;4.22;;;;;;;;;;4971681;28;20042;-61
2022/08/21 10:42:25;;;;;;;6.32;4.43;;;;;;;;;;4971023;28;20098;-61
2022/08/21 10:45:28;;;;;;;7.45;4.95;;;;;;;;;;4962838;28;20560;-61
2022/08/21 10:48:05;;;;;;;7.03;4.70;;;;;;;;;;4989799;28;20356;-61
2022/08/21 10:51:06;;;;;;;6.53;4.30;;;;;;;;;;4990632;28;20454;-61
2022/08/21 10:53:43;;;;;;;5.50;3.92;;;;;;;;;;4956523;28;20467;-61
2022/08/21 10:56:44;;;;;;;4.65;3.63;;;;;;;;;;4989762;28;20325;-61
2022/08/21 10:59:27;;;;;;;6.32;4.00;;;;;;;;;;4910013;28;20402;-62
2022/08/21 11:02:24;;;;;;;6.05;4.43;;;;;;;;;;4981863;28;20037;-62
2022/08/21 11:05:11;;;;;;;6.13;4.05;;;;;;;;;;4991106;28;20432;-61
2022/08/21 11:07:50;;;;;;;5.25;3.95;;;;;;;;;;4990266;28;20455;-61
2022/08/21 11:10:28;;;;;;;6.15;3.53;;;;;;;;;;4989927;28;20509;-63
2022/08/21 11:13:08;;;;;;;5.85;4.18;;;;;;;;;;4988014;28;20444;-61
2022/08/21 11:15:57;;;;;;;5.55;4.05;;;;;;;;;;4988455;28;20057;-61
2022/08/21 11:18:25;;;;;;;7.90;3.55;;;;;;;;;;4991895;28;20462;-61
2022/08/21 11:21:27;;;;;;;5.30;3.83;;;;;;;;;;4988484;28;20496;-61
2022/08/21 11:24:03;;;;;;;5.30;3.97;;;;;;;;;;4949983;28;20112;-61
2022/08/21 11:26:44;;;;;;;5.32;4.15;;;;;;;;;;4988100;28;20447;-62
2022/08/21 11:29:17;;;;;;;9.32;4.10;;;;;;;;;;4988070;28;20422;-62
2022/08/21 11:31:49;;;;;;;4.47;3.47;;;;;;;;;;4989154;28;20422;-62
2022/08/21 11:34:23;;;;;;;4.78;3.38;;;;;;;;;;4990157;28;20365;-63
2022/08/21 11:37:18;;;;;;;7.03;3.03;;;;;;;;;;4989198;28;20083;-62
2022/08/21 11:39:52;;;;;;;6.13;4.10;;;;;;;;;;4989198;28;20451;-62
2022/08/21 11:42:29;;;;;;;6.45;4.00;;;;;;;;;;4990099;28;20025;-61
2022/08/21 11:45:01;;;;;;;4.53;3.25;;;;;;;;;;4981841;28;20049;-61
2022/08/21 11:47:56;;;;;;;5.28;3.20;;;;;;;;;;4969206;28;20348;-62
2022/08/21 11:50:27;;;;;;;5.43;3.40;;;;;;;;;;4969553;28;20526;-62
2022/08/21 11:53:19;;;;;;;4.00;3.13;;;;;;;;;;4952085;28;20367;-62
2022/08/21 11:55:49;;;;;;;5.95;4.03;;;;;;;;;;4951346;28;20360;-61
2022/08/21 11:58:24;;;;;;;4.93;3.20;;;;;;;;;;4969043;28;20447;-61
2022/08/21 12:00:56;;;;;;;8.55;3.45;;;;;;;;;;4969255;28;20444;-61
2022/08/21 12:03:32;;;;;;;4.65;3.28;;;;;;;;;;4970185;28;20428;-61
2022/08/21 12:06:06;;;;;;;4.82;3.17;;;;;;;;;;4968822;28;20522;-61
2022/08/21 12:08:59;;;;;;;5.20;3.42;;;;;;;;;;4968920;28;20099;-61
2022/08/21 12:11:25;;;;;;;4.55;3.10;;;;;;;;;;4968837;28;20462;-61
2022/08/21 12:14:05;;;;;;;6.35;3.80;;;;;;;;;;4968826;28;20423;-62
2022/08/21 12:16:36;;;;;;;5.35;3.65;;;;;;;;;;4970861;28;20126;-61
2022/08/21 12:19:14;;;;;;;6.13;3.38;;;;;;;;;;4969257;28;20425;-61
2022/08/21 12:22:00;;;;;;;4.82;3.40;;;;;;;;;;4951196;28;20340;-61
2022/08/21 12:24:50;;;;;;;5.15;3.90;;;;;;;;;;4950966;28;20439;-61
2022/08/21 12:27:31;;;;;;;4.30;3.08;;;;;;;;;;4951683;28;20348;-61
2022/08/21 12:30:03;;;;;;;5.50;3.15;;;;;;;;;;4968528;28;20099;-61
2022/08/21 12:32:56;;;;;;;4.93;3.42;;;;;;;;;;4968332;28;20436;-61
2022/08/21 12:35:25;;;;;;;6.10;3.30;;;;;;;;;;4923926;28;20073;-61
2022/08/21 12:38:21;;;;;;;5.05;3.30;;;;;;;;;;4934494;28;20366;-61
2022/08/21 12:41:06;;;;;;;6.35;3.83;;;;;;;;;;4969085;28;20513;-61
2022/08/21 12:43:41;;;;;;;6.80;4.07;;;;;;;;;;4950424;28;20432;-61
2022/08/21 12:46:15;;;;;;;6.47;3.63;;;;;;;;;;4968527;28;20490;-61
2022/08/21 12:48:43;;;;;;;5.25;3.85;;;;;;;;;;4950889;28;20444;-61
2022/08/21 12:51:15;;;;;;;5.40;3.38;;;;;;;;;;4967878;28;20325;-61
2022/08/21 12:53:58;;;;;;;5.32;3.50;;;;;;;;;;4967980;28;20344;-61
2022/08/21 12:56:26;;;;;;;5.28;3.78;;;;;;;;;;4967786;28;20481;-61
2022/08/21 12:58:54;;;;;;;;;;;;;;;;;;4968240;28;20071;-62
2022/08/21 13:01:26;;;;;;;7.32;3.97;;;;;;;;;;4968835;28;20316;-62
2022/08/21 13:03:59;;;;;;;5.05;3.35;;;;;;;;;;4967754;28;20445;-62
2022/08/21 13:06:26;;;;;;;7.07;4.18;;;;;;;;;;4950941;28;20321;-62
2022/08/21 13:08:57;;;;;;;5.32;3.67;;;;;;;;;;4967884;28;20336;-62
2022/08/21 13:11:23;;;;;;;6.15;3.55;;;;;;;;;;4967531;28;20318;-62
2022/08/21 13:13:50;;;;;;;5.03;3.45;;;;;;;;;;4968788;28;20510;-64
2022/08/21 13:16:21;;;;;;;5.50;3.60;;;;;;;;;;4950386;28;20399;-62
2022/08/21 13:19:07;;;;;;;4.95;3.53;;;;;;;;;;4968409;28;20447;-62
2022/08/21 13:21:40;;;;;;;6.55;4.00;;;;;;;;;;4968186;28;20368;-62
2022/08/21 13:24:19;;;;;;;5.75;3.70;;;;;;;;;;4968067;28;20356;-62
2022/08/21 13:26:45;;;;;;;5.10;3.83;;;;;;;;;;4968175;28;20395;-61
2022/08/21 13:29:15;;;;;;;4.15;3.35;;;;;;;;;;4968484;28;20340;-61
2022/08/21 13:31:47;;;;;;;7.18;4.15;;;;;;;;;;4967921;28;20381;-62
2022/08/21 13:34:14;;;;;;;5.20;3.22;;;;;;;;;;4950636;28;20514;-62
2022/08/21 13:36:41;;;;;;;4.28;3.40;;;;;;;;;;4949965;28;20341;-62
2022/08/21 13:39:15;;;;;;;5.80;3.92;;;;;;;;;;4967860;28;20321;-62
2022/08/21 13:41:43;;;;;;;5.07;3.55;;;;;;;;;;4950110;28;20029;-61
2022/08/21 13:44:17;;;;;;;5.15;3.40;;;;;;;;;;4969746;28;20432;-61
2022/08/21 13:46:44;;;;;;;6.20;3.75;;;;;;;;;;4967814;28;20553;-63
2022/08/21 13:49:09;;;;;;;6.20;3.95;;;;;;;;;;4968026;28;20041;-62
2022/08/21 13:51:35;;;;;;;4.22;3.15;;;;;;;;;;4967786;28;20048;-61
2022/08/21 13:54:01;;;;;;;6.65;4.10;;;;;;;;;;4968336;28;20052;-61
2022/08/21 13:56:32;;;;;;;5.88;3.53;;;;;;;;;;4967627;28;20025;-61
2022/08/21 13:59:00;;;;;;;8.73;3.40;;;;;;;;;;4950099;28;20364;-61
2022/08/21 14:01:34;;;;;;;6.20;3.92;;;;;;;;;;4972766;28;20399;-61
2022/08/21 14:04:16;;;;;;;5.18;4.00;;;;;;;;;;4971649;28;20376;-61
2022/08/21 14:06:41;;;;;;;6.15;4.00;;;;;;;;;;4953865;28;20064;-61
2022/08/21 14:09:10;;;;;;;8.43;3.63;;;;;;;;;;4971922;28;20511;-62
2022/08/21 14:11:36;;;;;;;4.40;3.42;;;;;;;;;;4971237;28;20072;-62
2022/08/21 14:14:05;;;;;;;5.13;3.30;;;;;;;;;;4971255;28;20500;-62
2022/08/21 14:16:58;;;;;;;4.43;3.40;;;;;;;;;;4953496;28;20345;-62
2022/08/21 14:19:37;;;;;;;9.05;3.90;;;;;;;;;;4971633;28;20432;-61
2022/08/21 14:22:22;;;;;;;8.32;4.18;;;;;;;;;;4971003;28;20441;-61
2022/08/21 14:24:47;;;;;;;4.72;3.78;;;;;;;;;;4954966;28;20429;-62
2022/08/21 14:27:17;;;;;;;5.22;3.50;;;;;;;;;;4971196;28;20352;-61
2022/08/21 14:29:43;;;;;;;4.68;3.55;;;;;;;;;;4953042;28;20444;-61
2022/08/21 14:32:31;;;;;;;7.20;3.47;;;;;;;;;;4971444;28;20422;-61
2022/08/21 14:34:57;;;;;;;6.57;4.07;;;;;;;;;;4970465;28;20432;-61
2022/08/21 14:37:23;;;;;;;5.43;3.38;;;;;;;;;;4970857;28;20460;-61
2022/08/21 14:39:49;;;;;;;8.15;4.25;;;;;;;;;;4971057;28;20519;-61
2022/08/21 14:42:14;;;;;;;7.18;3.83;;;;;;;;;;4970291;28;20380;-61
2022/08/21 14:44:40;;;;;;;8.18;3.67;;;;;;;;;;4970198;28;20456;-61
2022/08/21 14:47:07;;;;;;;6.30;4.22;;;;;;;;;;4970405;28;20478;-61
2022/08/21 14:49:32;;;;;;;6.03;3.47;;;;;;;;;;4952556;28;20432;-62
2022/08/21 14:51:58;;;;;;;5.00;3.42;;;;;;;;;;4970390;28;20471;-61
2022/08/21 14:54:25;;;;;;;5.20;3.15;;;;;;;;;;4971155;28;20048;-61
2022/08/21 14:56:50;;;;;;;3.67;3.15;;;;;;;;;;4970169;28;20361;-61
2022/08/21 14:59:16;;;;;;;4.20;2.97;;;;;;;;;;4970836;28;20490;-61